createdAt,value
2023-05-14T00:00:27.137Z,35.44
2023-05-14T00:01:27.176Z,35.43
2023-05-14T00:02:27.279Z,35.42
2023-05-14T00:03:27.404Z,35.41
2023-05-14T00:04:27.352Z,35.42
2023-05-14T00:05:27.305Z,35.42
2023-05-14T00:06:27.297Z,35.42
2023-05-14T00:07:27.311Z,35.41
2023-05-14T00:08:27.321Z,35.41
2023-05-14T00:09:27.354Z,35.40
2023-05-14T00:10:27.393Z,35.42
2023-05-14T00:11:27.391Z,35.40
2023-05-14T00:12:27.393Z,35.40
2023-05-14T00:13:27.430Z,35.38
2023-05-14T00:14:27.459Z,35.40
2023-05-14T00:15:27.471Z,35.40
2023-05-14T00:16:27.500Z,35.42
2023-05-14T00:17:27.582Z,35.41
2023-05-14T00:18:27.541Z,35.38
2023-05-14T00:19:27.540Z,35.40
2023-05-14T00:20:27.573Z,35.37
2023-05-14T00:21:27.589Z,35.39
2023-05-14T00:22:27.643Z,35.38
2023-05-14T00:23:27.655Z,35.37
2023-05-14T00:24:27.726Z,35.38
2023-05-14T00:25:27.720Z,35.37
2023-05-14T00:26:27.762Z,35.35
2023-05-14T00:27:27.814Z,35.35
2023-05-14T00:28:27.830Z,35.36
2023-05-14T00:29:27.840Z,35.38
2023-05-14T00:30:27.882Z,35.34
2023-05-14T00:31:28.007Z,35.36
2023-05-14T00:32:28.009Z,35.34
2023-05-14T00:33:28.008Z,35.32
2023-05-14T00:34:27.995Z,35.33
2023-05-14T00:35:28.045Z,35.33
2023-05-14T00:36:28.049Z,35.32
2023-05-14T00:37:28.063Z,35.32
2023-05-14T00:38:28.092Z,35.31
2023-05-14T00:39:28.093Z,35.30
2023-05-14T00:40:28.154Z,35.30
2023-05-14T00:41:28.176Z,35.32
2023-05-14T00:42:28.177Z,35.30
2023-05-14T00:43:28.194Z,35.31
2023-05-14T00:44:28.245Z,35.32
2023-05-14T00:45:28.281Z,35.31
2023-05-14T00:46:28.307Z,35.28
2023-05-14T00:47:28.326Z,35.29
2023-05-14T00:48:28.359Z,35.30
2023-05-14T00:49:28.402Z,35.28
2023-05-14T00:50:28.429Z,35.28
2023-05-14T00:51:28.462Z,35.26
2023-05-14T00:52:28.487Z,35.27
2023-05-14T00:53:28.549Z,35.27
2023-05-14T00:54:28.570Z,35.27
2023-05-14T00:55:28.584Z,35.26
2023-05-14T00:56:28.619Z,35.27
2023-05-14T00:57:28.624Z,35.28
2023-05-14T00:58:28.666Z,35.26
2023-05-14T00:59:28.718Z,35.25
2023-05-14T01:00:28.726Z,35.28
2023-05-14T01:01:28.841Z,35.27
2023-05-14T01:02:28.795Z,35.24
2023-05-14T01:03:28.921Z,35.24
2023-05-14T01:04:28.797Z,35.23
2023-05-14T01:05:28.839Z,35.25
2023-05-14T01:06:28.868Z,35.22
2023-05-14T01:07:28.869Z,35.25
2023-05-14T01:08:28.929Z,35.23
2023-05-14T01:09:28.975Z,35.24
2023-05-14T01:10:28.985Z,35.22
2023-05-14T01:11:28.988Z,35.22
2023-05-14T01:12:29.049Z,35.22
2023-05-14T01:13:29.059Z,35.21
2023-05-14T01:14:29.088Z,35.21
2023-05-14T01:15:29.105Z,35.19
2023-05-14T01:16:29.202Z,35.19
2023-05-14T01:17:29.178Z,35.20
2023-05-14T01:18:29.217Z,35.19
2023-05-14T01:19:29.259Z,35.19
2023-05-14T01:20:29.261Z,35.18
2023-05-14T01:21:29.269Z,35.15
2023-05-14T01:22:29.324Z,35.18
2023-05-14T01:23:29.329Z,35.17
2023-05-14T01:24:29.361Z,35.17
2023-05-14T01:25:29.406Z,35.16
2023-05-14T01:26:29.423Z,35.17
2023-05-14T01:27:29.477Z,35.18
2023-05-14T01:28:29.510Z,35.16
2023-05-14T01:29:29.540Z,35.16
2023-05-14T01:30:29.546Z,35.16
2023-05-14T01:31:29.610Z,35.16
2023-05-14T01:32:29.629Z,35.15
2023-05-14T01:33:29.643Z,35.17
2023-05-14T01:34:29.651Z,35.18
2023-05-14T01:35:29.660Z,35.16
2023-05-14T01:36:29.709Z,35.16
2023-05-14T01:37:29.773Z,35.12
2023-05-14T01:38:29.762Z,35.14
2023-05-14T01:39:29.779Z,35.12
2023-05-14T01:40:29.810Z,35.14
2023-05-14T01:41:29.818Z,35.10
2023-05-14T01:42:29.896Z,35.14
2023-05-14T01:43:29.990Z,35.10
2023-05-14T01:44:29.952Z,35.11
2023-05-14T01:45:29.994Z,35.10
2023-05-14T01:46:30.060Z,35.10
2023-05-14T01:47:30.060Z,35.09
2023-05-14T01:48:30.073Z,35.10
2023-05-14T01:49:30.077Z,35.10
2023-05-14T01:50:30.105Z,35.07
2023-05-14T01:51:30.171Z,35.08
2023-05-14T01:52:30.184Z,35.06
2023-05-14T01:53:30.214Z,35.07
2023-05-14T01:54:30.245Z,35.08
2023-05-14T01:55:30.276Z,35.06
2023-05-14T01:56:30.317Z,35.04
2023-05-14T01:57:30.340Z,35.06
2023-05-14T01:58:30.401Z,35.06
2023-05-14T01:59:30.410Z,35.07
2023-05-14T02:00:30.463Z,35.06
2023-05-14T02:01:30.535Z,35.07
2023-05-14T02:02:30.532Z,35.05
2023-05-14T02:03:30.597Z,35.06
2023-05-14T02:04:30.570Z,35.04
2023-05-14T02:05:30.622Z,35.04
2023-05-14T02:06:30.637Z,35.02
2023-05-14T02:07:30.660Z,35.03
2023-05-14T02:08:30.740Z,35.04
2023-05-14T02:09:30.778Z,35.02
2023-05-14T02:10:30.816Z,35.02
2023-05-14T02:11:30.818Z,35.01
2023-05-14T02:12:30.825Z,35.00
2023-05-14T02:13:30.881Z,35.00
2023-05-14T02:14:30.884Z,35.01
2023-05-14T02:15:30.985Z,34.99
2023-05-14T02:16:31.000Z,34.98
2023-05-14T02:17:31.019Z,34.99
2023-05-14T02:18:31.059Z,34.98
2023-05-14T02:19:31.065Z,34.98
2023-05-14T02:20:31.088Z,34.99
2023-05-14T02:21:31.114Z,34.95
2023-05-14T02:22:31.167Z,34.96
2023-05-14T02:23:41.129Z,34.93
2023-05-14T02:24:32.214Z,34.95
2023-05-14T02:25:31.212Z,34.93
2023-05-14T02:26:31.173Z,34.94
2023-05-14T02:27:31.191Z,34.91
2023-05-14T02:28:31.193Z,34.90
2023-05-14T02:29:31.176Z,34.91
2023-05-14T02:30:31.178Z,34.89
2023-05-14T02:31:31.250Z,34.90
2023-05-14T02:32:31.255Z,34.85
2023-05-14T02:33:31.369Z,34.85
2023-05-14T02:34:31.184Z,34.86
2023-05-14T02:35:31.206Z,34.84
2023-05-14T02:36:31.192Z,34.85
2023-05-14T02:37:31.196Z,34.84
2023-05-14T02:38:31.171Z,34.84
2023-05-14T02:39:31.246Z,34.85
2023-05-14T02:40:31.285Z,34.83
2023-05-14T02:41:31.299Z,34.83
2023-05-14T02:42:31.350Z,34.82
2023-05-14T02:43:31.400Z,34.81
2023-05-14T02:44:31.389Z,34.80
2023-05-14T02:45:31.401Z,34.80
2023-05-14T02:46:31.531Z,34.82
2023-05-14T02:47:31.491Z,34.79
2023-05-14T02:48:31.506Z,34.78
2023-05-14T02:49:31.520Z,34.77
2023-05-14T02:50:31.570Z,34.79
2023-05-14T02:51:31.609Z,34.80
2023-05-14T02:52:31.616Z,34.79
2023-05-14T02:53:31.642Z,34.78
2023-05-14T02:54:31.680Z,34.81
2023-05-14T02:55:31.714Z,34.75
2023-05-14T02:56:31.731Z,34.78
2023-05-14T02:57:31.729Z,34.79
2023-05-14T02:58:31.779Z,34.79
2023-05-14T02:59:31.830Z,34.79
2023-05-14T03:00:31.838Z,34.76
2023-05-14T03:01:31.879Z,34.77
2023-05-14T03:02:31.959Z,34.78
2023-05-14T03:03:31.947Z,34.75
2023-05-14T03:04:31.975Z,34.76
2023-05-14T03:05:32.026Z,34.77
2023-05-14T03:06:32.061Z,34.78
2023-05-14T03:07:32.063Z,34.77
2023-05-14T03:08:32.132Z,34.76
2023-05-14T03:09:32.123Z,34.75
2023-05-14T03:10:32.168Z,34.74
2023-05-14T03:11:32.200Z,34.76
2023-05-14T03:12:32.204Z,34.76
2023-05-14T03:13:32.263Z,34.76
2023-05-14T03:14:32.276Z,34.73
2023-05-14T03:15:32.325Z,34.74
2023-05-14T03:16:32.380Z,34.76
2023-05-14T03:17:32.439Z,34.73
2023-05-14T03:18:32.479Z,34.73
2023-05-14T03:19:32.452Z,34.74
2023-05-14T03:20:32.506Z,34.73
2023-05-14T03:21:32.534Z,34.73
2023-05-14T03:22:32.571Z,34.73
2023-05-14T03:23:32.639Z,34.69
2023-05-14T03:24:32.643Z,34.72
2023-05-14T03:25:32.676Z,34.72
2023-05-14T03:26:32.709Z,34.72
2023-05-14T03:27:32.723Z,34.72
2023-05-14T03:28:32.760Z,34.70
2023-05-14T03:29:32.810Z,34.71
2023-05-14T03:30:32.863Z,34.73
2023-05-14T03:31:32.844Z,34.72
2023-05-14T03:32:32.918Z,34.73
2023-05-14T03:33:32.884Z,34.74
2023-05-14T03:34:32.950Z,34.71
2023-05-14T03:35:32.976Z,34.70
2023-05-14T03:36:32.983Z,34.71
2023-05-14T03:37:33.056Z,34.71
2023-05-14T03:38:33.072Z,34.71
2023-05-14T03:39:33.113Z,34.69
2023-05-14T03:40:33.114Z,34.72
2023-05-14T03:41:33.151Z,34.73
2023-05-14T03:42:33.201Z,34.71
2023-05-14T03:43:33.239Z,34.72
2023-05-14T03:44:33.278Z,34.73
2023-05-14T03:45:33.331Z,34.73
2023-05-14T03:46:33.327Z,34.73
2023-05-14T03:47:33.576Z,34.72
2023-05-14T03:48:33.771Z,34.73
2023-05-14T03:49:33.646Z,34.72
2023-05-14T03:50:33.438Z,34.71
2023-05-14T03:51:33.425Z,34.71
2023-05-14T03:52:33.468Z,34.71
2023-05-14T03:53:33.512Z,34.71
2023-05-14T03:54:33.547Z,34.70
2023-05-14T03:55:33.556Z,34.70
2023-05-14T03:56:33.569Z,34.71
2023-05-14T03:57:33.601Z,34.68
2023-05-14T03:58:33.656Z,34.69
2023-05-14T03:59:33.701Z,34.67
2023-05-14T04:00:33.733Z,34.68
2023-05-14T04:01:33.737Z,34.66
2023-05-14T04:02:33.855Z,34.67
2023-05-14T04:03:33.938Z,34.67
2023-05-14T04:04:33.897Z,34.68
2023-05-14T04:05:33.886Z,34.64
2023-05-14T04:06:34.051Z,34.65
2023-05-14T04:07:33.947Z,34.64
2023-05-14T04:08:33.996Z,34.64
2023-05-14T04:09:34.046Z,34.63
2023-05-14T04:10:34.106Z,34.64
2023-05-14T04:11:34.088Z,34.63
2023-05-14T04:12:34.166Z,34.62
2023-05-14T04:13:34.174Z,34.63
2023-05-14T04:14:34.272Z,34.63
2023-05-14T04:15:34.221Z,34.63
2023-05-14T04:16:34.359Z,34.63
2023-05-14T04:17:35.070Z,34.62
2023-05-14T04:18:34.407Z,34.61
2023-05-14T04:19:34.423Z,34.59
2023-05-14T04:20:34.424Z,34.60
2023-05-14T04:21:34.442Z,34.60
2023-05-14T04:22:34.466Z,34.64
2023-05-14T04:23:34.488Z,34.60
2023-05-14T04:24:34.502Z,34.58
2023-05-14T04:25:34.523Z,34.60
2023-05-14T04:26:34.557Z,34.64
2023-05-14T04:27:34.624Z,34.61
2023-05-14T04:28:34.663Z,34.63
2023-05-14T04:29:34.730Z,34.61
2023-05-14T04:30:34.748Z,34.59
2023-05-14T04:31:34.815Z,34.62
2023-05-14T04:32:34.818Z,34.62
2023-05-14T04:33:34.844Z,34.60
2023-05-14T04:34:34.896Z,34.62
2023-05-14T04:35:34.903Z,34.60
2023-05-14T04:36:34.951Z,34.60
2023-05-14T04:37:34.981Z,34.58
2023-05-14T04:38:35.008Z,34.58
2023-05-14T04:39:35.060Z,34.57
2023-05-14T04:40:35.095Z,34.55
2023-05-14T04:41:35.222Z,34.55
2023-05-14T04:42:35.139Z,34.54
2023-05-14T04:43:35.175Z,34.51
2023-05-14T04:44:35.230Z,34.50
2023-05-14T04:45:35.311Z,34.47
2023-05-14T04:46:35.444Z,34.50
2023-05-14T04:47:35.367Z,34.46
2023-05-14T04:48:35.400Z,34.44
2023-05-14T04:49:35.810Z,34.43
2023-05-14T04:50:35.476Z,34.40
2023-05-14T04:51:35.509Z,34.41
2023-05-14T04:52:35.574Z,34.39
2023-05-14T04:53:35.607Z,34.39
2023-05-14T04:54:35.708Z,34.39
2023-05-14T04:55:35.710Z,34.38
2023-05-14T04:56:35.772Z,34.35
2023-05-14T04:57:35.765Z,34.36
2023-05-14T04:58:35.834Z,34.37
2023-05-14T04:59:35.846Z,34.37
2023-05-14T05:00:35.916Z,34.38
2023-05-14T05:01:36.029Z,34.38
2023-05-14T05:02:36.018Z,34.37
2023-05-14T05:03:36.055Z,34.40
2023-05-14T05:04:36.065Z,34.38
2023-05-14T05:05:36.217Z,34.39
2023-05-14T05:06:36.157Z,34.38
2023-05-14T05:07:36.218Z,34.37
2023-05-14T05:08:36.227Z,34.36
2023-05-14T05:09:36.272Z,34.39
2023-05-14T05:10:36.355Z,34.36
2023-05-14T05:11:36.317Z,34.38
2023-05-14T05:12:36.372Z,34.37
2023-05-14T05:13:36.413Z,34.38
2023-05-14T05:14:36.431Z,34.37
2023-05-14T05:15:36.525Z,34.35
2023-05-14T05:16:36.594Z,34.39
2023-05-14T05:17:36.657Z,34.40
2023-05-14T05:18:36.661Z,34.38
2023-05-14T05:19:43.657Z,34.36
2023-05-14T05:20:37.628Z,34.40
2023-05-14T05:21:36.641Z,34.35
2023-05-14T05:22:36.634Z,34.38
2023-05-14T05:23:36.633Z,34.38
2023-05-14T05:24:36.634Z,34.39
2023-05-14T05:25:36.600Z,34.39
2023-05-14T05:26:36.620Z,34.40
2023-05-14T05:27:36.621Z,34.36
2023-05-14T05:28:36.610Z,34.37
2023-05-14T05:29:36.620Z,34.40
2023-05-14T05:30:36.614Z,34.40
2023-05-14T05:31:36.655Z,34.39
2023-05-14T05:32:36.631Z,34.39
2023-05-14T05:33:36.633Z,34.39
2023-05-14T05:34:36.651Z,34.39
2023-05-14T05:35:36.701Z,34.37
2023-05-14T05:36:36.724Z,34.41
2023-05-14T05:37:36.772Z,34.40
2023-05-14T05:38:36.796Z,34.40
2023-05-14T05:39:36.843Z,34.39
2023-05-14T05:40:36.920Z,34.40
2023-05-14T05:41:36.922Z,34.38
2023-05-14T05:42:36.964Z,34.40
2023-05-14T05:43:37.001Z,34.38
2023-05-14T05:44:37.093Z,34.42
2023-05-14T05:45:37.090Z,34.39
2023-05-14T05:46:37.206Z,34.39
2023-05-14T05:47:37.245Z,34.36
2023-05-14T05:48:37.217Z,34.39
2023-05-14T05:49:37.262Z,34.39
2023-05-14T05:50:37.312Z,34.37
2023-05-14T05:51:37.332Z,34.38
2023-05-14T05:52:37.414Z,34.38
2023-05-14T05:53:37.445Z,34.39
2023-05-14T05:54:37.497Z,34.39
2023-05-14T05:55:37.528Z,34.41
2023-05-14T05:56:37.592Z,34.39
2023-05-14T05:57:37.605Z,34.40
2023-05-14T05:58:37.655Z,34.41
2023-05-14T05:59:37.665Z,34.38
2023-05-14T06:00:37.712Z,34.40
2023-05-14T06:01:37.796Z,34.39
2023-05-14T06:02:37.952Z,34.42
2023-05-14T06:03:37.850Z,34.41
2023-05-14T06:04:37.881Z,34.41
2023-05-14T06:05:37.945Z,34.40
2023-05-14T06:06:37.976Z,34.41
2023-05-14T06:07:38.005Z,34.41
2023-05-14T06:08:38.017Z,34.39
2023-05-14T06:09:38.066Z,34.39
2023-05-14T06:10:38.093Z,34.38
2023-05-14T06:11:38.173Z,34.36
2023-05-14T06:12:38.175Z,34.40
2023-05-14T06:13:38.227Z,34.38
2023-05-14T06:14:38.257Z,34.37
2023-05-14T06:15:38.290Z,34.37
2023-05-14T06:16:38.403Z,34.40
2023-05-14T06:17:38.451Z,34.37
2023-05-14T06:18:38.426Z,34.37
2023-05-14T06:19:38.459Z,34.37
2023-05-14T06:20:38.474Z,34.35
2023-05-14T06:21:38.513Z,34.36
2023-05-14T06:22:38.562Z,34.36
2023-05-14T06:23:38.560Z,34.36
2023-05-14T06:24:38.584Z,34.36
2023-05-14T06:25:38.598Z,34.35
2023-05-14T06:26:38.660Z,34.33
2023-05-14T06:27:38.685Z,34.32
2023-05-14T06:28:38.737Z,34.31
2023-05-14T06:29:38.776Z,34.32
2023-05-14T06:30:38.802Z,34.32
2023-05-14T06:31:38.886Z,34.31
2023-05-14T06:32:38.916Z,34.32
2023-05-14T06:33:38.932Z,34.32
2023-05-14T06:34:38.961Z,34.30
2023-05-14T06:35:39.007Z,34.31
2023-05-14T06:36:39.030Z,34.31
2023-05-14T06:37:39.070Z,34.31
2023-05-14T06:38:39.112Z,34.31
2023-05-14T06:39:39.169Z,34.32
2023-05-14T06:40:39.222Z,34.31
2023-05-14T06:41:39.238Z,34.32
2023-05-14T06:42:39.297Z,34.31
2023-05-14T06:43:39.344Z,34.30
2023-05-14T06:44:39.363Z,34.30
2023-05-14T06:45:39.401Z,34.31
2023-05-14T06:46:39.466Z,34.30
2023-05-14T06:47:39.518Z,34.31
2023-05-14T06:48:39.548Z,34.29
2023-05-14T06:49:39.611Z,34.30
2023-05-14T06:50:39.617Z,34.31
2023-05-14T06:51:39.652Z,34.30
2023-05-14T06:52:39.700Z,34.33
2023-05-14T06:53:39.753Z,34.30
2023-05-14T06:54:39.790Z,34.31
2023-05-14T06:55:39.842Z,34.28
2023-05-14T06:56:39.881Z,34.30
2023-05-14T06:57:40.690Z,34.27
2023-05-14T06:58:39.952Z,34.31
2023-05-14T06:59:39.994Z,34.30
2023-05-14T07:00:40.007Z,34.31
2023-05-14T07:01:40.117Z,34.33
2023-05-14T07:02:40.107Z,34.32
2023-05-14T07:03:40.156Z,34.32
2023-05-14T07:04:40.257Z,34.29
2023-05-14T07:05:40.214Z,34.31
2023-05-14T07:06:40.240Z,34.30
2023-05-14T07:07:40.252Z,34.30
2023-05-14T07:08:40.318Z,34.33
2023-05-14T07:09:40.839Z,34.31
2023-05-14T07:10:40.553Z,34.27
2023-05-14T07:11:40.378Z,34.26
2023-05-14T07:12:40.437Z,34.26
2023-05-14T07:13:40.446Z,34.27
2023-05-14T07:14:40.474Z,34.27
2023-05-14T07:15:40.506Z,34.26
2023-05-14T07:16:40.542Z,34.27
2023-05-14T07:17:40.587Z,34.29
2023-05-14T07:18:40.655Z,34.24
2023-05-14T07:19:40.631Z,34.25
2023-05-14T07:20:40.686Z,34.25
2023-05-14T07:21:40.706Z,34.23
2023-05-14T07:22:40.760Z,34.23
2023-05-14T07:23:40.792Z,34.23
2023-05-14T07:24:40.842Z,34.22
2023-05-14T07:25:40.858Z,34.23
2023-05-14T07:26:40.916Z,34.22
2023-05-14T07:27:40.939Z,34.19
2023-05-14T07:28:40.982Z,34.20
2023-05-14T07:29:41.015Z,34.22
2023-05-14T07:30:41.029Z,34.20
2023-05-14T07:31:41.111Z,34.22
2023-05-14T07:32:41.133Z,34.20
2023-05-14T07:33:41.152Z,34.20
2023-05-14T07:34:41.204Z,34.20
2023-05-14T07:35:41.247Z,34.20
2023-05-14T07:36:41.259Z,34.19
2023-05-14T07:37:41.293Z,34.19
2023-05-14T07:38:41.349Z,34.21
2023-05-14T07:39:41.376Z,34.19
2023-05-14T07:40:41.405Z,34.19
2023-05-14T07:41:41.473Z,34.21
2023-05-14T07:42:41.505Z,34.19
2023-05-14T07:43:41.516Z,34.19
2023-05-14T07:44:41.588Z,34.18
2023-05-14T07:45:41.666Z,34.20
2023-05-14T07:46:41.648Z,34.18
2023-05-14T07:47:41.757Z,34.17
2023-05-14T07:48:41.773Z,34.19
2023-05-14T07:49:41.766Z,34.18
2023-05-14T07:50:41.785Z,34.16
2023-05-14T07:51:41.855Z,34.19
2023-05-14T07:52:41.833Z,34.18
2023-05-14T07:53:41.860Z,34.19
2023-05-14T07:54:41.905Z,34.18
2023-05-14T07:55:41.969Z,34.20
2023-05-14T07:56:41.982Z,34.17
2023-05-14T07:57:42.026Z,34.19
2023-05-14T07:58:42.078Z,34.18
2023-05-14T07:59:42.085Z,34.15
2023-05-14T08:00:42.129Z,34.12
2023-05-14T08:01:42.222Z,34.13
2023-05-14T08:02:42.259Z,34.13
2023-05-14T08:03:42.347Z,34.13
2023-05-14T08:04:42.272Z,34.15
2023-05-14T08:05:42.319Z,34.12
2023-05-14T08:06:42.317Z,34.13
2023-05-14T08:07:42.366Z,34.13
2023-05-14T08:08:42.390Z,34.15
2023-05-14T08:09:42.428Z,34.12
2023-05-14T08:10:42.487Z,34.14
2023-05-14T08:11:42.523Z,34.12
2023-05-14T08:12:42.539Z,34.11
2023-05-14T08:13:42.608Z,34.12
2023-05-14T08:14:42.632Z,34.11
2023-05-14T08:15:42.738Z,34.11
2023-05-14T08:16:42.742Z,34.11
2023-05-14T08:17:42.759Z,34.10
2023-05-14T08:18:42.835Z,34.10
2023-05-14T08:19:42.840Z,34.09
2023-05-14T08:20:42.813Z,34.10
2023-05-14T08:21:42.858Z,34.08
2023-05-14T08:23:42.917Z,34.07
2023-05-14T08:24:43.003Z,34.06
2023-05-14T08:25:42.985Z,34.07
2023-05-14T08:26:42.983Z,34.08
2023-05-14T08:27:43.050Z,34.07
2023-05-14T08:28:43.080Z,34.08
2023-05-14T08:29:43.091Z,34.09
2023-05-14T08:30:43.216Z,34.06
2023-05-14T08:31:43.171Z,34.07
2023-05-14T08:32:43.189Z,34.08
2023-05-14T08:33:43.202Z,34.05
2023-05-14T08:34:44.105Z,34.05
2023-05-14T08:35:43.290Z,34.09
2023-05-14T08:36:43.316Z,34.06
2023-05-14T08:37:43.381Z,34.06
2023-05-14T08:38:43.385Z,34.05
2023-05-14T08:39:43.422Z,34.05
2023-05-14T08:40:43.486Z,34.06
2023-05-14T08:41:43.508Z,34.03
2023-05-14T08:42:43.527Z,34.03
2023-05-14T08:43:43.536Z,34.01
2023-05-14T08:44:43.587Z,34.03
2023-05-14T08:45:43.589Z,34.02
2023-05-14T08:46:43.627Z,34.01
2023-05-14T08:47:43.677Z,33.99
2023-05-14T08:48:43.726Z,33.97
2023-05-14T08:49:43.721Z,34.01
2023-05-14T08:50:43.765Z,33.98
2023-05-14T08:51:43.760Z,33.96
2023-05-14T08:52:43.778Z,33.96
2023-05-14T08:53:43.840Z,33.93
2023-05-14T08:54:43.866Z,33.95
2023-05-14T08:55:43.888Z,33.94
2023-05-14T08:56:43.894Z,33.97
2023-05-14T08:57:43.930Z,33.97
2023-05-14T08:58:43.960Z,33.95
2023-05-14T08:59:43.962Z,33.94
2023-05-14T09:00:43.995Z,33.92
2023-05-14T09:01:44.028Z,33.93
2023-05-14T09:02:44.092Z,33.90
2023-05-14T09:03:44.119Z,33.92
2023-05-14T09:04:44.108Z,33.91
2023-05-14T09:05:44.097Z,33.89
2023-05-14T09:06:44.115Z,33.90
2023-05-14T09:07:44.136Z,33.89
2023-05-14T09:08:44.123Z,33.89
2023-05-14T09:09:44.145Z,33.86
2023-05-14T09:10:44.154Z,33.87
2023-05-14T09:11:44.289Z,33.84
2023-05-14T09:12:44.213Z,33.85
2023-05-14T09:13:44.211Z,33.85
2023-05-14T09:14:44.249Z,33.86
2023-05-14T09:15:44.285Z,33.84
2023-05-14T09:16:44.342Z,33.83
2023-05-14T09:17:44.341Z,33.82
2023-05-14T09:18:44.380Z,33.82
2023-05-14T09:19:44.312Z,33.81
2023-05-14T09:20:44.330Z,33.83
2023-05-14T09:21:44.355Z,33.82
2023-05-14T09:22:44.377Z,33.80
2023-05-14T09:23:44.408Z,33.81
2023-05-14T09:24:44.386Z,33.79
2023-05-14T09:25:44.432Z,33.81
2023-05-14T09:26:44.430Z,33.81
2023-05-14T09:27:44.445Z,33.78
2023-05-14T09:28:44.445Z,33.80
2023-05-14T09:29:44.974Z,33.81
2023-05-14T09:30:44.481Z,33.79
2023-05-14T09:31:44.523Z,33.78
2023-05-14T09:32:44.633Z,33.76
2023-05-14T09:33:44.533Z,33.74
2023-05-14T09:34:44.528Z,33.75
2023-05-14T09:35:44.575Z,33.75
2023-05-14T09:36:44.595Z,33.71
2023-05-14T09:37:44.591Z,33.68
2023-05-14T09:38:44.611Z,33.69
2023-05-14T09:39:44.646Z,33.68
2023-05-14T09:40:44.625Z,33.69
2023-05-14T09:41:44.670Z,33.69
2023-05-14T09:42:44.674Z,33.69
2023-05-14T09:43:44.694Z,33.71
2023-05-14T09:44:44.701Z,33.70
2023-05-14T09:45:44.708Z,33.70
2023-05-14T09:46:44.721Z,33.69
2023-05-14T09:47:44.926Z,33.71
2023-05-14T09:48:44.877Z,33.70
2023-05-14T09:49:44.763Z,33.74
2023-05-14T09:50:44.792Z,33.72
2023-05-14T09:51:44.825Z,33.73
2023-05-14T09:52:44.805Z,33.72
2023-05-14T09:53:44.844Z,33.72
2023-05-14T09:54:44.950Z,33.69
2023-05-14T09:55:44.873Z,33.69
2023-05-14T09:57:44.907Z,33.68
2023-05-14T09:58:44.921Z,33.68
2023-05-14T09:59:44.966Z,33.71
2023-05-14T10:00:45.030Z,33.70
2023-05-14T10:01:44.997Z,33.71
2023-05-14T10:02:44.984Z,33.68
2023-05-14T10:03:45.018Z,33.68
2023-05-14T10:04:45.227Z,33.68
2023-05-14T10:05:45.037Z,33.64
2023-05-14T10:06:45.056Z,33.64
2023-05-14T10:07:45.059Z,33.64
2023-05-14T10:08:45.068Z,33.66
2023-05-14T10:09:45.081Z,33.63
2023-05-14T10:10:45.090Z,33.63
2023-05-14T10:11:45.122Z,33.61
2023-05-14T10:12:45.120Z,33.60
2023-05-14T10:13:45.129Z,33.58
2023-05-14T10:14:45.153Z,33.59
2023-05-14T10:15:45.149Z,33.58
2023-05-14T10:16:45.244Z,33.58
2023-05-14T10:17:45.194Z,33.57
2023-05-14T10:18:45.201Z,33.58
2023-05-14T10:19:45.243Z,33.56
2023-05-14T10:20:45.253Z,33.53
2023-05-14T10:21:45.252Z,33.54
2023-05-14T10:22:45.245Z,33.53
2023-05-14T10:23:45.263Z,33.53
2023-05-14T10:24:45.286Z,33.53
2023-05-14T10:25:45.331Z,33.51
2023-05-14T10:26:45.351Z,33.54
2023-05-14T10:27:45.355Z,33.53
2023-05-14T10:28:45.392Z,33.50
2023-05-14T10:29:45.358Z,33.49
2023-05-14T10:30:45.409Z,33.49
2023-05-14T10:31:45.530Z,33.50
2023-05-14T10:32:45.453Z,33.50
2023-05-14T10:33:45.455Z,33.51
2023-05-14T10:34:45.481Z,33.52
2023-05-14T10:35:45.484Z,33.52
2023-05-14T10:36:45.513Z,33.49
2023-05-14T10:37:45.536Z,33.49
2023-05-14T10:38:45.522Z,33.49
2023-05-14T10:39:45.516Z,33.48
2023-05-14T10:40:45.565Z,33.48
2023-05-14T10:41:45.576Z,33.47
2023-05-14T10:42:45.560Z,33.48
2023-05-14T10:43:45.566Z,33.45
2023-05-14T10:44:45.593Z,33.47
2023-05-14T10:45:45.600Z,33.46
2023-05-14T10:46:45.693Z,33.44
2023-05-14T10:47:45.721Z,33.43
2023-05-14T10:48:45.665Z,33.43
2023-05-14T10:49:45.720Z,33.43
2023-05-14T10:50:45.763Z,33.45
2023-05-14T10:51:45.793Z,33.43
2023-05-14T10:52:45.755Z,33.42
2023-05-14T10:53:45.779Z,33.42
2023-05-14T10:54:45.798Z,33.41
2023-05-14T10:55:45.798Z,33.42
2023-05-14T10:56:45.851Z,33.40
2023-05-14T10:57:45.899Z,33.42
2023-05-14T10:58:45.902Z,33.40
2023-05-14T10:59:45.915Z,33.40
2023-05-14T11:00:45.940Z,33.40
2023-05-14T11:01:46.021Z,33.37
2023-05-14T11:02:46.028Z,33.35
2023-05-14T11:03:46.129Z,33.34
2023-05-14T11:04:46.033Z,33.37
2023-05-14T11:05:46.021Z,33.33
2023-05-14T11:06:46.053Z,33.34
2023-05-14T11:07:46.097Z,33.33
2023-05-14T11:08:46.159Z,33.32
2023-05-14T11:09:46.146Z,33.33
2023-05-14T11:10:46.103Z,33.34
2023-05-14T11:11:46.167Z,33.32
2023-05-14T11:12:46.153Z,33.33
2023-05-14T11:13:46.193Z,33.33
2023-05-14T11:14:46.176Z,33.31
2023-05-14T11:15:46.183Z,33.31
2023-05-14T11:16:46.244Z,33.32
2023-05-14T11:17:46.246Z,33.30
2023-05-14T11:18:46.303Z,33.28
2023-05-14T11:19:46.280Z,33.28
2023-05-14T11:20:46.339Z,33.29
2023-05-14T11:21:46.337Z,33.29
2023-05-14T11:22:46.359Z,33.26
2023-05-14T11:23:46.362Z,33.28
2023-05-14T11:24:46.396Z,33.28
2023-05-14T11:25:46.422Z,33.28
2023-05-14T11:26:46.433Z,33.27
2023-05-14T11:27:46.444Z,33.27
2023-05-14T11:28:46.478Z,33.27
2023-05-14T11:29:46.496Z,33.29
2023-05-14T11:30:46.520Z,33.27
2023-05-14T11:31:46.568Z,33.29
2023-05-14T11:32:46.612Z,33.26
2023-05-14T11:33:46.564Z,33.29
2023-05-14T11:34:46.640Z,33.27
2023-05-14T11:35:46.613Z,33.26
2023-05-14T11:36:46.615Z,33.27
2023-05-14T11:37:46.645Z,33.26
2023-05-14T11:38:46.677Z,33.26
2023-05-14T11:39:46.710Z,33.25
2023-05-14T11:40:46.717Z,33.27
2023-05-14T11:41:46.721Z,33.28
2023-05-14T11:42:46.747Z,33.26
2023-05-14T11:43:46.765Z,33.26
2023-05-14T11:44:46.794Z,33.28
2023-05-14T11:45:46.821Z,33.27
2023-05-14T11:46:46.805Z,33.26
2023-05-14T11:47:46.838Z,33.27
2023-05-14T11:48:46.818Z,33.27
2023-05-14T11:49:46.844Z,33.27
2023-05-14T11:50:46.821Z,33.28
2023-05-14T11:51:46.860Z,33.28
2023-05-14T11:52:46.884Z,33.27
2023-05-14T11:53:46.892Z,33.27
2023-05-14T11:54:46.913Z,33.27
2023-05-14T11:55:46.959Z,33.27
2023-05-14T11:56:46.953Z,33.28
2023-05-14T11:57:46.968Z,33.28
2023-05-14T11:58:46.998Z,33.28
2023-05-14T11:59:46.970Z,33.28
2023-05-14T12:00:47.017Z,33.25
2023-05-14T12:01:48.502Z,33.28
2023-05-14T12:02:47.157Z,33.27
2023-05-14T12:03:47.161Z,33.27
2023-05-14T12:04:47.214Z,33.27
2023-05-14T12:05:47.129Z,33.27
2023-05-14T12:06:47.147Z,33.27
2023-05-14T12:07:47.175Z,33.26
2023-05-14T12:08:47.224Z,33.23
2023-05-14T12:09:47.242Z,33.24
2023-05-14T12:10:47.254Z,33.25
2023-05-14T12:11:47.277Z,33.26
2023-05-14T12:12:47.293Z,33.26
2023-05-14T12:13:47.316Z,33.25
2023-05-14T12:14:47.360Z,33.27
2023-05-14T12:15:47.398Z,33.26
2023-05-14T12:16:47.477Z,33.27
2023-05-14T12:17:47.462Z,33.28
2023-05-14T12:18:47.425Z,33.29
2023-05-14T12:19:47.426Z,33.29
2023-05-14T12:20:47.476Z,33.28
2023-05-14T12:21:47.488Z,33.29
2023-05-14T12:22:47.497Z,33.31
2023-05-14T12:23:47.499Z,33.29
2023-05-14T12:24:47.530Z,33.33
2023-05-14T12:25:47.525Z,33.32
2023-05-14T12:26:47.547Z,33.33
2023-05-14T12:27:47.598Z,33.35
2023-05-14T12:28:47.584Z,33.36
2023-05-14T12:29:47.650Z,33.35
2023-05-14T12:30:47.616Z,33.34
2023-05-14T12:31:47.704Z,33.35
2023-05-14T12:32:47.660Z,33.36
2023-05-14T12:33:47.673Z,33.36
2023-05-14T12:34:47.700Z,33.36
2023-05-14T12:35:47.706Z,33.36
2023-05-14T12:36:47.708Z,33.38
2023-05-14T12:37:47.769Z,33.36
2023-05-14T12:38:47.765Z,33.37
2023-05-14T12:39:47.805Z,33.39
2023-05-14T12:40:47.833Z,33.37
2023-05-14T12:41:47.846Z,33.41
2023-05-14T12:42:47.861Z,33.41
2023-05-14T12:43:47.864Z,33.38
2023-05-14T12:44:47.903Z,33.41
2023-05-14T12:45:47.915Z,33.40
2023-05-14T12:46:47.949Z,33.41
2023-05-14T12:47:47.992Z,33.40
2023-05-14T12:48:47.993Z,33.39
2023-05-14T12:49:47.982Z,33.42
2023-05-14T12:50:47.982Z,33.43
2023-05-14T12:51:47.994Z,33.44
2023-05-14T12:52:48.027Z,33.44
2023-05-14T12:53:48.085Z,33.43
2023-05-14T12:54:48.091Z,33.44